createdAt,value
2023-03-25T00:01:14.440Z,100217.16
2023-03-25T00:03:42.117Z,100220.53
2023-03-25T00:06:10.766Z,100230.19
2023-03-25T00:08:37.612Z,100227.09
2023-03-25T00:11:06.873Z,100229.97
2023-03-25T00:13:34.590Z,100224.47
2023-03-25T00:16:02.572Z,100228.94
2023-03-25T00:18:33.752Z,100221.69
2023-03-25T00:21:05.281Z,100219.88
2023-03-25T00:23:32.514Z,100213.09
2023-03-25T00:26:00.366Z,100218.31
2023-03-25T00:28:30.826Z,100219.34
2023-03-25T00:31:02.027Z,100226.69
2023-03-25T00:33:28.865Z,100216.25
2023-03-25T00:35:59.436Z,100218.38
2023-03-25T00:38:35.227Z,100219.44
2023-03-25T00:41:11.353Z,100227.25
2023-03-25T00:43:37.975Z,100224.66
2023-03-25T00:46:04.678Z,100216.84
2023-03-25T00:48:31.308Z,100223.41
2023-03-25T00:50:57.970Z,100212.19
2023-03-25T00:53:25.790Z,100225.72
2023-03-25T00:55:58.239Z,100230.91
2023-03-25T00:58:24.701Z,100241.31
2023-03-25T01:00:51.167Z,100234.59
2023-03-25T01:03:18.857Z,100221.09
2023-03-25T01:05:45.794Z,100230.44
2023-03-25T01:08:14.706Z,100219.25
2023-03-25T01:10:41.269Z,100223.69
2023-03-25T01:13:07.810Z,100219.53
2023-03-25T01:15:34.380Z,100218.75
2023-03-25T01:18:01.195Z,100220.59
2023-03-25T01:20:27.726Z,100236.72
2023-03-25T01:22:54.195Z,100219.53
2023-03-25T01:25:20.866Z,100213.28
2023-03-25T01:27:47.353Z,100228.41
2023-03-25T01:30:14.530Z,100214.03
2023-03-25T01:32:41.165Z,100214.81
2023-03-25T01:35:08.020Z,100219.53
2023-03-25T01:37:36.801Z,100217.22
2023-03-25T01:40:05.317Z,100206.03
2023-03-25T01:42:31.990Z,100210.75
2023-03-25T01:45:16.211Z,100216.25
2023-03-25T01:47:44.385Z,100213.16
2023-03-25T01:50:14.897Z,100210.34
2023-03-25T01:52:47.626Z,100222.13
2023-03-25T01:55:17.982Z,100207.31
2023-03-25T01:57:46.096Z,100206.81
2023-03-25T02:00:15.427Z,100211.53
2023-03-25T02:02:43.473Z,100200.91
2023-03-25T02:05:18.391Z,100204.38
2023-03-25T02:07:48.775Z,100196.66
2023-03-25T02:10:17.592Z,100212.84
2023-03-25T02:12:45.869Z,100210.78
2023-03-25T02:15:15.718Z,100200.69
2023-03-25T02:17:49.435Z,100196.81
2023-03-25T02:20:18.876Z,100208.19
2023-03-25T02:23:03.452Z,100199.88
2023-03-25T02:25:56.237Z,100208.78
2023-03-25T02:28:49.762Z,100204.13
2023-03-25T02:31:46.439Z,100203.44
2023-03-25T02:34:26.632Z,100200.13
2023-03-25T02:37:18.669Z,100208.78
2023-03-25T02:40:02.898Z,100202.31
2023-03-25T02:42:53.702Z,100197.19
2023-03-25T02:45:37.799Z,100196.72
2023-03-25T02:48:11.760Z,100197.75
2023-03-25T02:50:51.690Z,100188.41
2023-03-25T02:53:29.824Z,100185.31
2023-03-25T02:56:00.126Z,100192.81
2023-03-25T02:58:29.935Z,100190.44
2023-03-25T03:00:58.935Z,100189.66
2023-03-25T03:03:27.466Z,100197.69
2023-03-25T03:05:59.037Z,100188.53
2023-03-25T03:08:38.275Z,100190.38
2023-03-25T03:11:21.854Z,100177.38
2023-03-25T03:13:58.027Z,100170.81
2023-03-25T03:16:32.122Z,100168.97
2023-03-25T03:19:16.595Z,100172.06
2023-03-25T03:22:02.254Z,100168.44
2023-03-25T03:24:36.511Z,100180.38
2023-03-25T03:27:23.803Z,100176.72
2023-03-25T03:29:57.757Z,100166.31
2023-03-25T03:32:37.122Z,100172.06
2023-03-25T03:35:09.854Z,100178.34
2023-03-25T03:37:44.625Z,100172.66
2023-03-25T03:40:17.260Z,100171.09
2023-03-25T03:43:04.510Z,100169.28
2023-03-25T03:45:39.308Z,100172.66
2023-03-25T03:48:17.449Z,100167.44
2023-03-25T03:50:52.714Z,100163.28
2023-03-25T03:53:28.976Z,100165.91
2023-03-25T03:56:08.205Z,100159.16
2023-03-25T03:58:44.454Z,100166.97
2023-03-25T04:01:27.974Z,100158.66
2023-03-25T04:04:00.408Z,100157.38
2023-03-25T04:06:35.429Z,100162.59
2023-03-25T04:09:18.374Z,100158.47
2023-03-25T04:11:54.068Z,100148.31
2023-03-25T04:14:21.579Z,100153.25
2023-03-25T04:16:48.175Z,100150.66
2023-03-25T04:19:18.515Z,100151.41
2023-03-25T04:21:47.823Z,100150.94
2023-03-25T04:24:16.813Z,100143.88
2023-03-25T04:26:43.843Z,100145.81
2023-03-25T04:29:10.413Z,100143.72
2023-03-25T04:31:37.872Z,100148.13
2023-03-25T04:34:04.710Z,100146.38
2023-03-25T04:36:37.967Z,100147.94
2023-03-25T04:39:05.074Z,100138.06
2023-03-25T04:41:32.220Z,100131.34
2023-03-25T04:43:59.141Z,100145.97
2023-03-25T04:46:26.391Z,100147.78
2023-03-25T04:48:54.144Z,100148.63
2023-03-25T04:51:23.315Z,100172.03
2023-03-25T04:53:49.953Z,100180.88
2023-03-25T04:56:18.510Z,100180.38
2023-03-25T04:58:45.905Z,100179.88
2023-03-25T05:01:22.409Z,100187.69
2023-03-25T05:03:50.352Z,100177.84
2023-03-25T05:06:18.003Z,100182.56
2023-03-25T05:08:44.523Z,100168.22
2023-03-25T05:11:11.017Z,100173.16
2023-03-25T05:13:37.484Z,100173.16
2023-03-25T05:16:04.178Z,100176.78
2023-03-25T05:18:31.270Z,100189.78
2023-03-25T05:20:57.752Z,100178.91
2023-03-25T05:23:24.818Z,100170.59
2023-03-25T05:25:51.815Z,100180.03
2023-03-25T05:28:18.904Z,100180.50
2023-03-25T05:30:46.817Z,100189.38
2023-03-25T05:33:15.736Z,100187.81
2023-03-25T05:35:42.800Z,100178.50
2023-03-25T05:38:12.504Z,100184.22
2023-03-25T05:40:40.230Z,100166.03
2023-03-25T05:43:06.842Z,100181.94
2023-03-25T05:45:35.966Z,100180.66
2023-03-25T05:48:03.579Z,100199.91
2023-03-25T05:50:30.828Z,100199.09
2023-03-25T05:52:57.461Z,100190.00
2023-03-25T05:55:24.499Z,100199.81
2023-03-25T05:57:51.010Z,100193.38
2023-03-25T06:00:19.407Z,100186.34
2023-03-25T06:02:46.105Z,100191.84
2023-03-25T06:05:14.240Z,100211.06
2023-03-25T06:07:49.823Z,100208.75
2023-03-25T06:10:18.094Z,100207.97
2023-03-25T06:12:46.949Z,100206.41
2023-03-25T06:15:21.360Z,100207.69
2023-03-25T06:17:47.901Z,100214.94
2023-03-25T06:20:16.460Z,100218.03
2023-03-25T06:22:44.835Z,100201.88
2023-03-25T06:25:17.659Z,100208.06
2023-03-25T06:27:44.796Z,100214.75
2023-03-25T06:30:14.169Z,100199.00
2023-03-25T06:32:40.685Z,100202.94
2023-03-25T06:35:10.030Z,100208.06
2023-03-25T06:37:37.410Z,100200.47
2023-03-25T06:40:05.547Z,100210.06
2023-03-25T06:42:32.560Z,100207.97
2023-03-25T06:44:59.762Z,100205.19
2023-03-25T06:47:26.262Z,100204.09
2023-03-25T06:49:52.857Z,100200.34
2023-03-25T06:52:19.307Z,100221.50
2023-03-25T06:54:45.878Z,100221.38
2023-03-25T06:57:12.409Z,100234.16
2023-03-25T06:59:39.038Z,100230.34
2023-03-25T07:02:05.860Z,100235.06
2023-03-25T07:04:32.571Z,100237.56
2023-03-25T07:06:59.070Z,100239.91
2023-03-25T07:09:25.737Z,100241.25
2023-03-25T07:11:52.214Z,100244.34
2023-03-25T07:14:18.721Z,100248.97
2023-03-25T07:16:45.428Z,100243.75
2023-03-25T07:19:12.052Z,100233.16
2023-03-25T07:21:38.572Z,100246.97
2023-03-25T07:24:05.392Z,100249.09
2023-03-25T07:26:31.920Z,100249.59
2023-03-25T07:28:58.663Z,100250.38
2023-03-25T07:31:25.407Z,100250.88
2023-03-25T07:33:52.367Z,100249.53
2023-03-25T07:36:19.063Z,100245.38
2023-03-25T07:38:46.265Z,100244.22
2023-03-25T07:41:13.330Z,100260.94
2023-03-25T07:43:40.054Z,100252.72
2023-03-25T07:46:06.826Z,100249.00
2023-03-25T07:48:33.434Z,100254.53
2023-03-25T07:50:59.962Z,100249.97
2023-03-25T07:53:26.430Z,100256.50
2023-03-25T07:55:53.357Z,100259.34
2023-03-25T07:58:20.333Z,100251.06
2023-03-25T08:00:47.130Z,100251.16
2023-03-25T08:03:15.146Z,100259.31
2023-03-25T08:05:48.188Z,100257.03
2023-03-25T08:08:15.444Z,100253.94
2023-03-25T08:10:46.556Z,100260.94
2023-03-25T08:13:13.452Z,100260.94
2023-03-25T08:15:40.836Z,100261.72
2023-03-25T08:18:07.761Z,100252.31
2023-03-25T08:20:35.691Z,100253.63
2023-03-25T08:23:03.178Z,100270.53
2023-03-25T08:25:31.002Z,100274.66
2023-03-25T08:27:57.661Z,100273.63
2023-03-25T08:30:24.487Z,100262.00
2023-03-25T08:32:54.688Z,100271.16
2023-03-25T08:35:25.077Z,100274.53
2023-03-25T08:37:51.985Z,100275.72
2023-03-25T08:40:18.686Z,100284.03
2023-03-25T08:42:46.324Z,100277.13
2023-03-25T08:45:15.288Z,100278.75
2023-03-25T08:47:43.028Z,100268.41
2023-03-25T08:50:09.760Z,100270.34
2023-03-25T08:52:36.216Z,100274.13
2023-03-25T08:55:03.255Z,100267.31
2023-03-25T08:57:29.861Z,100277.69
2023-03-25T08:59:56.425Z,100273.56
2023-03-25T09:02:22.899Z,100280.25
2023-03-25T09:04:49.610Z,100281.47
2023-03-25T09:07:19.892Z,100281.88
2023-03-25T09:09:46.679Z,100279.84
2023-03-25T09:12:13.228Z,100279.38
2023-03-25T09:14:39.811Z,100282.44
2023-03-25T09:17:06.864Z,100278.19
2023-03-25T09:19:38.111Z,100274.22
2023-03-25T09:22:05.955Z,100275.91
2023-03-25T09:24:34.463Z,100275.13
2023-03-25T09:27:02.310Z,100291.34
2023-03-25T09:29:29.663Z,100283.13
2023-03-25T09:31:58.292Z,100279.56
2023-03-25T09:34:25.067Z,100294.41
2023-03-25T09:36:52.106Z,100296.75
2023-03-25T09:39:19.057Z,100294.50
2023-03-25T09:42:10.127Z,100297.31
2023-03-25T09:44:49.779Z,100300.41
2023-03-25T09:47:18.438Z,100295.69
2023-03-25T09:49:53.803Z,100302.16
2023-03-25T09:52:36.599Z,100306.94
2023-03-25T09:55:08.666Z,100299.34
2023-03-25T09:57:45.753Z,100295.41
2023-03-25T10:00:19.253Z,100287.41
2023-03-25T10:02:53.992Z,100300.47
2023-03-25T10:05:37.264Z,100302.00
2023-03-25T10:08:24.531Z,100308.78
2023-03-25T10:10:57.030Z,100316.97
2023-03-25T10:13:42.429Z,100314.53
2023-03-25T10:16:21.676Z,100315.47
2023-03-25T10:19:15.985Z,100314.69
2023-03-25T10:22:04.115Z,100313.72
2023-03-25T10:24:49.675Z,100330.03
2023-03-25T10:27:24.149Z,100321.94
2023-03-25T10:29:57.763Z,100321.06
2023-03-25T10:32:54.045Z,100309.63
2023-03-25T10:35:31.134Z,100325.91
2023-03-25T10:38:04.809Z,100315.66
2023-03-25T10:43:38.183Z,100313.97
2023-03-25T10:46:19.881Z,100324.06
2023-03-25T10:48:47.136Z,100325.19
2023-03-25T10:51:17.527Z,100321.91
2023-03-25T10:53:49.628Z,100320.50
2023-03-25T10:56:19.268Z,100323.28
2023-03-25T10:58:51.679Z,100327.13
2023-03-25T11:01:22.338Z,100304.94
2023-03-25T11:03:53.682Z,100344.94
2023-03-25T11:06:29.659Z,100344.28
2023-03-25T11:09:15.456Z,100340.19
2023-03-25T11:11:43.244Z,100346.28
2023-03-25T11:14:11.173Z,100342.81
2023-03-25T11:16:46.221Z,100333.06
2023-03-25T11:19:28.701Z,100346.28
2023-03-25T11:22:02.959Z,100353.88
2023-03-25T11:24:35.280Z,100353.69
2023-03-25T11:27:02.339Z,100339.72
2023-03-25T11:29:30.485Z,100345.78
2023-03-25T11:32:05.681Z,100348.53
2023-03-25T11:34:32.730Z,100358.25
2023-03-25T11:36:59.268Z,100352.88
2023-03-25T11:39:37.949Z,100368.94
2023-03-25T11:42:22.284Z,100358.63
2023-03-25T11:44:53.771Z,100351.25
2023-03-25T11:47:25.839Z,100354.25
2023-03-25T11:49:54.186Z,100355.16
2023-03-25T11:52:24.542Z,100334.88
2023-03-25T11:54:54.919Z,100351.75
2023-03-25T11:57:32.875Z,100351.91
2023-03-25T12:00:11.931Z,100351.69
2023-03-25T12:02:40.410Z,100367.53
2023-03-25T12:05:12.796Z,100357.94
2023-03-25T12:07:48.776Z,100341.41
2023-03-25T12:10:40.190Z,100351.97
2023-03-25T12:13:17.741Z,100347.31
2023-03-25T12:16:12.225Z,100351.25
2023-03-25T12:18:57.300Z,100355.94
2023-03-25T12:21:45.651Z,100345.34
2023-03-25T12:24:45.090Z,100353.00
2023-03-25T12:27:36.884Z,100333.03
2023-03-25T12:30:27.581Z,100337.28
2023-03-25T12:33:16.542Z,100341.78
2023-03-25T12:35:58.569Z,100337.28
2023-03-25T12:38:40.920Z,100328.34
2023-03-25T12:41:38.243Z,100327.13
2023-03-25T12:44:08.871Z,100352.69
2023-03-25T12:47:14.816Z,100351.00
2023-03-25T12:49:54.040Z,100348.69
2023-03-25T12:52:53.106Z,100336.97
2023-03-25T12:55:55.130Z,100344.38
2023-03-25T12:58:33.934Z,100342.44
2023-03-25T13:01:08.716Z,100327.97
2023-03-25T13:03:53.312Z,100340.28
2023-03-25T13:06:50.348Z,100331.88
2023-03-25T13:09:25.471Z,100346.81
2023-03-25T13:11:58.507Z,100336.66
2023-03-25T13:14:35.015Z,100344.44
2023-03-25T13:17:09.175Z,100341.31
2023-03-25T13:19:41.514Z,100349.34
2023-03-25T13:22:19.947Z,100357.69
2023-03-25T13:24:55.506Z,100351.97
2023-03-25T13:27:22.469Z,100363.28
2023-03-25T13:29:56.670Z,100342.88
2023-03-25T13:32:39.424Z,100366.50
2023-03-25T13:35:25.351Z,100357.81
2023-03-25T13:37:57.415Z,100373.84
2023-03-25T13:40:33.803Z,100357.66
2023-03-25T13:43:07.544Z,100362.59
2023-03-25T13:46:00.041Z,100360.34
2023-03-25T13:48:56.528Z,100372.75
2023-03-25T13:51:23.881Z,100365.06
2023-03-25T13:54:04.487Z,100372.19
2023-03-25T13:57:01.789Z,100363.16
2023-03-25T14:00:01.576Z,100364.88
2023-03-25T14:02:55.154Z,100362.75
2023-03-25T14:05:56.494Z,100386.66
2023-03-25T14:09:04.620Z,100405.72
2023-03-25T14:11:46.491Z,100431.63
2023-03-25T14:14:18.433Z,100449.91
2023-03-25T14:16:56.532Z,100442.16
2023-03-25T14:19:35.159Z,100443.00
2023-03-25T14:22:11.161Z,100453.25
2023-03-25T14:24:38.008Z,100430.56
2023-03-25T14:27:16.570Z,100448.13
2023-03-25T14:30:08.444Z,100436.06
2023-03-25T14:32:40.694Z,100428.19
2023-03-25T14:35:32.767Z,100427.16
2023-03-25T14:38:08.622Z,100432.56
2023-03-25T14:41:03.772Z,100437.63
2023-03-25T14:43:38.643Z,100442.50
2023-03-25T14:46:10.661Z,100442.75
2023-03-25T14:48:45.911Z,100420.97
2023-03-25T14:51:20.339Z,100430.06
2023-03-25T14:54:14.474Z,100424.66
2023-03-25T14:57:01.927Z,100430.41
2023-03-25T14:59:32.122Z,100433.81
2023-03-25T15:02:15.056Z,100434.66
2023-03-25T15:04:41.878Z,100419.75
2023-03-25T15:07:17.738Z,100425.94
2023-03-25T15:09:52.586Z,100445.06
2023-03-25T15:12:24.139Z,100436.69
2023-03-25T15:14:56.169Z,100436.13
2023-03-25T15:17:46.496Z,100429.19
2023-03-25T15:20:28.767Z,100442.34
2023-03-25T15:23:20.362Z,100505.19
2023-03-25T16:25:58.547Z,100566.06
2023-03-25T16:28:39.457Z,100578.78
2023-03-25T16:31:06.600Z,100597.28
2023-03-25T16:39:18.064Z,100603.31
2023-03-25T16:41:55.208Z,100592.66
2023-03-25T16:44:44.940Z,100571.56
2023-03-25T16:47:36.136Z,100575.13
2023-03-25T16:54:25.293Z,100587.06
2023-03-25T17:12:35.737Z,100618.63
2023-03-25T17:27:35.371Z,100632.75
2023-03-25T17:33:50.623Z,100647.63
2023-03-25T17:36:41.163Z,100634.88
2023-03-25T17:49:26.857Z,100657.22
2023-03-25T17:52:08.077Z,100656.69
2023-03-25T17:54:39.184Z,100676.22
2023-03-25T17:57:18.469Z,100686.84
2023-03-25T17:59:56.628Z,100685.28
2023-03-25T18:02:24.307Z,100698.81
2023-03-25T18:04:52.066Z,100671.25
2023-03-25T18:07:33.436Z,100672.31
2023-03-25T18:13:01.607Z,100683.28
2023-03-25T18:16:08.089Z,100695.75
2023-03-25T18:18:36.476Z,100715.25
2023-03-25T18:21:10.401Z,100706.44
2023-03-25T18:23:37.547Z,100717.06
2023-03-25T18:26:07.115Z,100729.34
2023-03-25T18:28:37.002Z,100723.84
2023-03-25T18:34:42.364Z,100719.19
2023-03-25T18:37:13.448Z,100718.69
2023-03-25T18:39:51.913Z,100726.22
2023-03-25T18:51:38.689Z,100714.59
2023-03-25T21:05:44.266Z,100756.09
2023-03-25T21:34:30.490Z,100786.72
2023-03-25T21:43:35.818Z,100798.16
2023-03-25T23:34:58.919Z,100852.03
2023-03-25T23:37:29.940Z,100843.47
2023-03-25T23:40:05.001Z,100841.91
2023-03-25T23:42:35.803Z,100839.06
2023-03-25T23:48:05.436Z,100837.25
2023-03-25T23:50:46.232Z,100831.00
2023-03-25T23:56:02.619Z,100836.22
